Time;durP1;ratioP1;P1;durP2;ratioP2;P2;SDS_P1;SDS_P2;PMS_P1;PMS_P2;Temp;Humidity;BMP_temperature;BMP_pressure;BME280_temperature;BME280_humidity;BME280_pressure;Samples;Min_cycle;Max_cycle;Signal;HPM_P1;HPM_P2
2022/12/30 00:01:12;;;;;;;0.63;0.38;;;6.20;99.90;;;;;;5008609;28;20060;-61
2022/12/30 00:03:39;;;;;;;0.93;0.45;;;6.20;99.90;;;;;;5010708;28;20562;-61
2022/12/30 00:06:14;;;;;;;0.40;0.40;;;6.20;99.90;;;;;;5008247;28;20054;-61
2022/12/30 00:08:46;;;;;;;0.50;0.40;;;6.10;99.90;;;;;;5010290;28;20112;-61
2022/12/30 00:11:25;;;;;;;0.50;0.30;;;6.10;99.90;;;;;;5025750;28;20049;-61
2022/12/30 00:33:49;;;;;;;0.43;0.40;;;6.00;99.90;;;;;;5014195;28;20099;-61
2022/12/30 00:36:16;;;;;;;0.50;0.50;;;6.00;99.90;;;;;;5009908;28;20045;-61
2022/12/30 00:38:43;;;;;;;2.72;0.40;;;6.00;99.90;;;;;;5008580;28;20542;-61
2022/12/30 00:43:55;;;;;;;0.75;0.73;;;6.00;99.90;;;;;;5011673;28;20045;-61
2022/12/30 00:46:23;;;;;;;0.30;0.30;;;5.90;99.90;;;;;;5011902;28;20080;-62
2022/12/30 00:57:07;;;;;;;0.43;0.43;;;5.80;99.90;;;;;;5008858;28;20045;-61
2022/12/30 00:59:34;;;;;;;0.50;0.50;;;5.80;99.90;;;;;;5011744;28;20314;-63
2022/12/30 01:02:01;;;;;;;;;;;5.80;99.90;;;;;;5010016;28;20041;-62
2022/12/30 01:04:28;;;;;;;0.30;0.30;;;5.80;99.90;;;;;;5010045;28;20522;-61
2022/12/30 01:06:55;;;;;;;;;;;5.80;99.90;;;;;;5014582;28;20384;-61
2022/12/30 01:09:22;;;;;;;0.40;0.30;;;5.70;99.90;;;;;;5009872;28;20011;-61
2022/12/30 01:12:07;;;;;;;0.32;0.20;;;5.70;99.90;;;;;;5009090;28;20048;-63
2022/12/30 01:14:43;;;;;;;0.50;0.30;;;5.60;99.90;;;;;;5010522;28;20048;-61
2022/12/30 01:17:12;;;;;;;2.72;0.30;;;5.60;99.90;;;;;;5010968;28;20132;-64
2022/12/30 01:19:39;;;;;;;0.20;0.20;;;5.60;99.90;;;;;;5012419;28;20160;-60
2022/12/30 01:22:07;;;;;;;0.10;0.10;;;5.50;99.90;;;;;;5009570;28;20052;-61
2022/12/30 01:24:34;;;;;;;0.15;0.10;;;5.50;99.90;;;;;;5011312;28;20208;-61
2022/12/30 01:27:01;;;;;;;0.35;0.35;;;5.40;99.90;;;;;;5008052;28;20294;-61
2022/12/30 01:29:30;;;;;;;0.57;0.20;;;5.40;99.90;;;;;;5009470;28;20484;-61
2022/12/30 01:31:58;;;;;;;0.98;0.30;;;5.30;99.90;;;;;;5019552;28;20344;-61
2022/12/30 01:34:25;;;;;;;1.75;0.17;;;5.30;99.90;;;;;;5010033;28;20136;-61
2022/12/30 01:36:52;;;;;;;0.20;0.20;;;5.30;99.90;;;;;;5012736;28;20151;-61
2022/12/30 01:39:20;;;;;;;0.50;0.20;;;5.20;99.90;;;;;;5009644;28;20469;-61
2022/12/30 01:41:47;;;;;;;0.20;0.20;;;5.20;99.90;;;;;;5011748;28;20079;-64
2022/12/30 01:44:45;;;;;;;0.20;0.20;;;5.10;99.90;;;;;;5009103;28;20371;-61
2022/12/30 01:47:17;;;;;;;0.50;0.40;;;5.10;99.90;;;;;;5008479;28;20045;-61
2022/12/30 01:49:46;;;;;;;1.25;0.30;;;5.10;99.90;;;;;;5010994;28;20041;-61
2022/12/30 01:52:16;;;;;;;0.20;0.20;;;5.00;99.90;;;;;;5009603;28;20502;-61
2022/12/30 01:54:44;;;;;;;0.20;0.20;;;5.00;99.90;;;;;;5008717;28;20562;-61
2022/12/30 01:57:11;;;;;;;1.60;0.25;;;5.00;99.90;;;;;;5010088;28;20048;-61
2022/12/30 01:59:38;;;;;;;0.30;0.30;;;4.90;99.90;;;;;;5007416;28;20045;-61
2022/12/30 02:02:05;;;;;;;0.28;0.28;;;4.90;99.90;;;;;;5009477;28;20498;-61
2022/12/30 02:04:33;;;;;;;0.20;0.20;;;4.90;99.90;;;;;;5009558;28;20133;-62
2022/12/30 02:07:22;;;;;;;0.25;0.25;;;4.90;99.90;;;;;;5011289;28;20122;-62
2022/12/30 02:09:51;;;;;;;1.05;0.45;;;4.90;99.90;;;;;;5010022;28;20244;-61
2022/12/30 02:12:18;;;;;;;0.20;0.20;;;4.90;99.90;;;;;;5011495;28;20175;-60
2022/12/30 02:14:46;;;;;;;0.40;0.30;;;4.90;99.90;;;;;;5011858;28;20122;-61
2022/12/30 02:17:35;;;;;;;0.30;0.20;;;4.90;99.90;;;;;;5009702;28;20052;-61
2022/12/30 02:20:37;;;;;;;0.30;0.30;;;4.90;99.90;;;;;;5012873;28;20702;-61
2022/12/30 02:23:41;;;;;;;0.75;0.30;;;4.80;99.90;;;;;;4991923;28;20049;-61
2022/12/30 02:26:49;;;;;;;0.40;0.40;;;4.80;99.90;;;;;;5013457;28;20061;-64
2022/12/30 02:29:38;;;;;;;0.75;0.75;;;4.80;99.90;;;;;;4953120;28;20513;-61
2022/12/30 02:32:09;;;;;;;0.30;0.30;;;4.80;99.90;;;;;;5021304;28;20237;-62
2022/12/30 02:34:55;;;;;;;1.50;0.30;;;4.80;99.90;;;;;;5009970;28;20276;-62
2022/12/30 02:37:28;;;;;;;0.20;0.20;;;4.80;99.90;;;;;;5007677;28;20051;-61
2022/12/30 02:40:12;;;;;;;0.15;0.15;;;4.80;99.90;;;;;;5010445;28;20521;-62
2022/12/30 02:45:41;;;;;;;0.73;0.40;;;4.70;99.90;;;;;;5012777;28;20175;-61
2022/12/30 02:48:34;;;;;;;0.45;0.28;;;4.60;99.90;;;;;;5008270;28;20056;-62
2022/12/30 02:53:47;;;;;;;0.20;0.20;;;4.60;99.90;;;;;;5008531;28;20636;-61
2022/12/30 02:56:14;;;;;;;0.45;0.40;;;4.60;99.90;;;;;;5010291;28;20131;-62
2022/12/30 02:58:46;;;;;;;;;;;4.50;99.90;;;;;;5008767;28;20282;-62
2022/12/30 03:04:23;;;;;;;2.13;0.40;;;4.50;99.90;;;;;;5007204;28;20057;-61
2022/12/30 03:07:32;;;;;;;0.57;0.32;;;4.50;99.90;;;;;;5019098;28;20111;-62
2022/12/30 03:13:11;;;;;;;1.85;0.40;;;4.40;99.90;;;;;;5011856;28;20069;-62
2022/12/30 03:15:44;;;;;;;0.63;0.35;;;4.40;99.90;;;;;;5009632;28;20401;-61
2022/12/30 03:18:11;;;;;;;3.28;0.40;;;4.40;99.90;;;;;;5004769;28;20212;-61
2022/12/30 03:20:40;;;;;;;0.75;0.35;;;4.40;99.90;;;;;;5007455;28;20049;-62
2022/12/30 03:28:48;;;;;;;0.20;0.20;;;4.40;99.90;;;;;;5026541;28;20045;-61
2022/12/30 03:31:16;;;;;;;0.30;0.30;;;4.30;99.90;;;;;;5022888;28;20403;-61
2022/12/30 03:33:43;;;;;;;1.05;0.30;;;4.30;99.90;;;;;;5020909;28;20051;-62
2022/12/30 03:36:17;;;;;;;0.30;0.22;;;4.30;99.90;;;;;;5008244;28;20049;-61
2022/12/30 03:38:59;;;;;;;0.20;0.20;;;4.30;99.90;;;;;;5006161;28;20053;-62
2022/12/30 03:41:28;;;;;;;0.20;0.20;;;4.30;99.90;;;;;;5009117;28;20559;-61
2022/12/30 03:43:55;;;;;;;0.20;0.20;;;4.30;99.90;;;;;;5007136;28;20422;-61
2022/12/30 03:46:28;;;;;;;0.10;0.10;;;4.30;99.90;;;;;;5011942;28;20045;-61
2022/12/30 03:48:55;;;;;;;1.95;0.28;;;4.30;99.90;;;;;;5018022;28;20248;-61
2022/12/30 03:51:22;;;;;;;0.30;0.30;;;4.30;99.90;;;;;;5008047;28;20047;-63
2022/12/30 03:53:49;;;;;;;0.20;0.20;;;4.30;99.90;;;;;;5007764;28;20404;-61
2022/12/30 03:56:15;;;;;;;;;;;4.30;99.90;;;;;;5007084;28;20511;-61
2022/12/30 03:58:42;;;;;;;0.20;0.20;;;4.30;99.90;;;;;;5007595;28;19956;-61
2022/12/30 04:01:09;;;;;;;0.20;0.20;;;4.30;99.90;;;;;;5004901;28;20046;-61
2022/12/30 04:03:36;;;;;;;2.78;0.25;;;4.30;99.90;;;;;;5007858;28;20689;-61
2022/12/30 04:06:03;;;;;;;;;;;4.30;99.90;;;;;;5014356;28;20056;-60
2022/12/30 04:08:29;;;;;;;0.10;0.10;;;4.20;99.90;;;;;;5011373;28;20362;-61
2022/12/30 04:10:56;;;;;;;0.22;0.22;;;4.30;99.90;;;;;;5017400;28;20041;-61
2022/12/30 04:13:23;;;;;;;;;;;4.20;99.90;;;;;;5014011;28;20100;-62
2022/12/30 04:15:51;;;;;;;0.10;0.10;;;4.20;99.90;;;;;;5012073;28;20447;-61
2022/12/30 04:18:18;;;;;;;0.20;0.20;;;4.20;99.90;;;;;;5013477;28;20079;-61
2022/12/30 04:20:46;;;;;;;0.28;0.28;;;4.20;99.90;;;;;;5010975;28;20300;-61
2022/12/30 04:23:14;;;;;;;0.17;0.17;;;4.20;99.90;;;;;;5009274;28;20057;-61
2022/12/30 04:25:41;;;;;;;0.10;0.10;;;4.20;99.90;;;;;;5010254;28;20454;-61
2022/12/30 04:28:07;;;;;;;0.20;0.20;;;4.20;99.90;;;;;;5008710;28;20037;-61
2022/12/30 04:30:34;;;;;;;;;;;4.10;99.90;;;;;;5013525;28;20571;-63
2022/12/30 04:33:01;;;;;;;0.10;0.10;;;4.10;99.90;;;;;;5009679;28;20350;-63
2022/12/30 04:35:28;;;;;;;0.75;0.38;;;4.10;99.90;;;;;;5010657;28;20053;-61
2022/12/30 04:37:55;;;;;;;;;;;4.10;99.90;;;;;;5013281;28;20456;-62
2022/12/30 04:40:21;;;;;;;0.20;0.20;;;4.00;99.90;;;;;;5011559;28;19931;-62
2022/12/30 04:42:48;;;;;;;;;;;4.00;99.90;;;;;;5012299;28;20201;-62
2022/12/30 04:45:15;;;;;;;0.20;0.20;;;4.00;99.90;;;;;;5011908;28;20342;-62
2022/12/30 04:47:42;;;;;;;0.20;0.20;;;3.90;99.90;;;;;;5014327;28;20504;-62
2022/12/30 04:50:10;;;;;;;;;;;3.90;99.90;;;;;;5018376;28;20041;-62
2022/12/30 04:52:37;;;;;;;0.00;0.00;;;3.80;99.90;;;;;;5017486;28;20284;-61
2022/12/30 04:55:04;;;;;;;2.20;0.55;;;3.70;99.90;;;;;;5016389;28;20112;-61
2022/12/30 04:57:31;;;;;;;0.10;0.10;;;3.70;99.90;;;;;;5011385;28;20488;-61
2022/12/30 04:59:58;;;;;;;0.10;0.10;;;3.60;99.90;;;;;;5009232;28;20133;-62
2022/12/30 05:02:25;;;;;;;0.40;0.30;;;3.60;99.90;;;;;;5009589;28;20147;-61
2022/12/30 05:04:51;;;;;;;0.38;0.30;;;3.50;99.90;;;;;;5008020;28;20575;-61
2022/12/30 05:07:18;;;;;;;;;;;3.50;99.90;;;;;;5011610;28;20378;-61
2022/12/30 05:09:45;;;;;;;0.35;0.28;;;3.50;99.90;;;;;;5010114;28;20015;-62
2022/12/30 05:12:11;;;;;;;2.78;0.30;;;3.50;99.90;;;;;;5009328;28;20148;-62
2022/12/30 05:14:38;;;;;;;0.30;0.30;;;3.40;99.90;;;;;;5010547;28;20052;-62
2022/12/30 05:17:05;;;;;;;0.20;0.20;;;3.40;99.90;;;;;;5015179;28;20056;-61
2022/12/30 05:19:32;;;;;;;0.30;0.30;;;3.40;99.90;;;;;;5012181;28;20539;-61
2022/12/30 05:21:58;;;;;;;0.20;0.20;;;3.40;99.90;;;;;;5005551;28;20566;-61
2022/12/30 05:27:11;;;;;;;0.35;0.35;;;3.40;99.90;;;;;;5009554;28;20377;-62
2022/12/30 05:29:37;;;;;;;;;;;3.40;99.90;;;;;;5010005;28;20052;-61
2022/12/30 05:32:04;;;;;;;0.25;0.25;;;3.40;99.90;;;;;;5012827;28;20171;-61
2022/12/30 05:34:31;;;;;;;0.32;0.32;;;3.40;99.90;;;;;;5005338;28;20036;-61
2022/12/30 05:36:58;;;;;;;;;;;3.40;99.90;;;;;;5011248;28;20429;-62
2022/12/30 05:39:24;;;;;;;0.28;0.28;;;3.40;99.90;;;;;;5012009;28;19925;-61
2022/12/30 05:41:51;;;;;;;0.20;0.20;;;3.40;99.90;;;;;;5011335;28;20045;-61
2022/12/30 05:44:18;;;;;;;0.43;0.30;;;3.40;99.90;;;;;;5008623;28;20152;-61
2022/12/30 05:46:44;;;;;;;;;;;3.40;99.90;;;;;;5010194;28;20052;-62
2022/12/30 05:49:11;;;;;;;0.40;0.40;;;3.30;99.90;;;;;;5020878;28;20301;-61
2022/12/30 05:51:38;;;;;;;1.10;0.63;;;3.30;99.90;;;;;;5010197;28;20081;-62
2022/12/30 05:54:04;;;;;;;1.88;0.90;;;3.30;99.90;;;;;;5010593;28;20057;-62
2022/12/30 05:56:31;;;;;;;0.68;0.68;;;3.30;99.90;;;;;;5011257;28;20067;-61
2022/12/30 05:58:58;;;;;;;;;;;3.30;99.90;;;;;;5012027;28;20068;-62
2022/12/30 06:01:25;;;;;;;1.25;0.93;;;3.30;99.90;;;;;;5009127;28;19951;-62
2022/12/30 06:03:55;;;;;;;;;;;3.20;99.90;;;;;;5010774;28;20136;-61
2022/12/30 06:06:23;;;;;;;1.98;1.00;;;3.20;99.90;;;;;;5009621;28;20224;-62
2022/12/30 06:08:50;;;;;;;1.35;1.08;;;3.20;99.90;;;;;;5010480;28;20037;-62
2022/12/30 06:11:16;;;;;;;;;;;3.10;99.90;;;;;;5013894;28;20411;-62
2022/12/30 06:13:43;;;;;;;2.15;1.33;;;3.20;99.90;;;;;;5008217;28;20774;-61
2022/12/30 06:16:10;;;;;;;3.55;1.75;;;3.20;99.90;;;;;;5011062;28;20102;-61
2022/12/30 06:18:37;;;;;;;5.30;2.10;;;3.10;99.90;;;;;;5009854;28;20053;-61
2022/12/30 06:21:04;;;;;;;2.50;2.30;;;3.10;99.90;;;;;;5009072;28;20131;-61
2022/12/30 06:23:31;;;;;;;2.58;2.13;;;3.10;99.90;;;;;;5010006;28;20049;-61
2022/12/30 06:25:59;;;;;;;6.88;2.65;;;3.10;99.90;;;;;;5007886;28;20044;-61
2022/12/30 06:28:28;;;;;;;4.75;3.08;;;3.00;99.90;;;;;;5009649;28;20076;-61
2022/12/30 06:30:55;;;;;;;4.72;2.90;;;3.00;99.90;;;;;;5007086;28;20095;-61
2022/12/30 06:33:23;;;;;;;;;;;3.00;99.90;;;;;;5014694;28;20048;-61
2022/12/30 06:35:50;;;;;;;8.20;3.22;;;3.00;99.90;;;;;;5013044;28;20829;-61
2022/12/30 06:38:17;;;;;;;5.43;3.70;;;3.00;99.90;;;;;;5010111;28;20404;-61
2022/12/30 06:40:44;;;;;;;5.25;2.88;;;3.00;99.90;;;;;;5008208;28;20046;-62
2022/12/30 06:43:12;;;;;;;7.53;3.60;;;3.00;99.90;;;;;;5022660;28;20539;-62
2022/12/30 06:45:39;;;;;;;6.32;3.53;;;2.90;99.90;;;;;;5008985;28;20241;-62
2022/12/30 06:48:06;;;;;;;4.55;3.05;;;2.90;99.90;;;;;;5008431;28;20041;-62
2022/12/30 06:50:33;;;;;;;4.10;3.42;;;2.90;99.90;;;;;;5009709;28;20049;-62
2022/12/30 06:53:00;;;;;;;5.15;3.38;;;2.90;99.90;;;;;;5009706;28;20046;-62
2022/12/30 06:55:26;;;;;;;;;;;2.90;99.90;;;;;;5020389;28;20042;-62
2022/12/30 06:58:04;;;;;;;4.80;3.03;;;2.90;99.90;;;;;;5010325;28;19925;-62
2022/12/30 07:00:32;;;;;;;4.88;3.83;;;2.80;99.90;;;;;;5008089;28;20041;-62
2022/12/30 07:02:59;;;;;;;4.25;2.88;;;2.80;99.90;;;;;;5007604;28;20446;-53
2022/12/30 07:05:26;;;;;;;5.35;3.85;;;2.80;99.90;;;;;;5009458;28;20435;-52
2022/12/30 07:07:53;;;;;;;4.60;3.95;;;2.80;99.90;;;;;;5007395;28;20436;-52
2022/12/30 07:10:19;;;;;;;;;;;2.80;99.90;;;;;;5011357;28;20041;-53
2022/12/30 07:12:46;;;;;;;4.47;3.28;;;2.80;99.90;;;;;;5010222;28;20016;-54
2022/12/30 07:15:13;;;;;;;;;;;2.70;99.90;;;;;;5010838;28;20574;-54
2022/12/30 07:17:39;;;;;;;5.10;3.00;;;2.80;99.90;;;;;;5010528;28;20484;-53
2022/12/30 07:20:06;;;;;;;;;;;2.70;99.90;;;;;;5006769;28;20600;-53
2022/12/30 07:22:33;;;;;;;4.35;3.05;;;2.70;99.90;;;;;;5008088;28;19929;-55
2022/12/30 07:25:00;;;;;;;;;;;2.70;99.90;;;;;;5010701;28;20138;-55
2022/12/30 07:27:26;;;;;;;4.22;3.17;;;2.70;99.90;;;;;;5007356;28;19932;-53
2022/12/30 07:29:53;;;;;;;6.05;3.92;;;2.70;99.90;;;;;;5009676;28;20049;-54
2022/12/30 07:32:20;;;;;;;;;;;2.70;99.90;;;;;;5008665;28;20943;-54
2022/12/30 07:34:46;;;;;;;4.05;3.03;;;2.70;99.90;;;;;;5007955;28;20007;-55
2022/12/30 07:37:13;;;;;;;;;;;2.70;99.90;;;;;;5004842;28;20115;-55
2022/12/30 07:39:40;;;;;;;4.60;3.50;;;2.70;99.90;;;;;;5006218;28;20351;-54
2022/12/30 07:42:07;;;;;;;;;;;2.70;99.90;;;;;;5009918;28;20076;-49
2022/12/30 07:44:33;;;;;;;6.35;3.58;;;2.70;99.90;;;;;;5005562;28;20180;-53
2022/12/30 07:47:00;;;;;;;;;;;2.70;99.90;;;;;;5010278;28;20049;-50
2022/12/30 07:49:27;;;;;;;5.03;3.85;;;2.70;99.90;;;;;;5009241;28;19925;-50
2022/12/30 07:51:53;;;;;;;;;;;2.70;99.90;;;;;;5006976;28;20056;-50
2022/12/30 07:54:20;;;;;;;5.15;4.00;;;2.80;99.90;;;;;;5007580;28;20007;-51
2022/12/30 07:56:47;;;;;;;8.90;4.75;;;2.80;99.90;;;;;;5007025;28;20049;-48
2022/12/30 07:59:14;;;;;;;;;;;2.90;99.90;;;;;;5011368;28;20459;-49
2022/12/30 08:01:41;;;;;;;6.82;5.03;;;2.90;99.90;;;;;;5008018;28;19929;-51
2022/12/30 08:04:08;;;;;;;7.38;4.68;;;3.10;99.90;;;;;;5006592;28;20048;-57
2022/12/30 08:06:54;;;;;;;6.63;4.57;;;3.40;99.90;;;;;;5011191;28;20037;-58
2022/12/30 08:09:21;;;;;;;;;;;3.70;99.90;;;;;;5011300;28;20057;-59
2022/12/30 08:11:48;;;;;;;7.00;4.55;;;3.90;99.90;;;;;;5012762;28;19925;-57
2022/12/30 08:14:15;;;;;;;4.47;4.03;;;4.10;99.90;;;;;;5008312;28;20046;-61
2022/12/30 08:16:41;;;;;;;4.18;3.53;;;4.40;99.90;;;;;;5007615;28;20577;-60
2022/12/30 08:19:08;;;;;;;12.77;4.28;;;4.80;99.90;;;;;;5007002;28;20132;-57
2022/12/30 08:21:35;;;;;;;;;;;5.10;99.90;;;;;;5007727;28;20041;-61
2022/12/30 08:24:02;;;;;;;4.45;3.60;;;5.40;99.90;;;;;;5006437;28;20484;-61
2022/12/30 08:26:28;;;;;;;5.75;3.90;;;5.60;99.90;;;;;;5007409;28;20244;-56
2022/12/30 08:28:55;;;;;;;4.68;3.45;;;5.80;99.90;;;;;;5008176;28;20261;-62
2022/12/30 08:31:25;;;;;;;3.58;3.17;;;6.00;99.90;;;;;;5009970;28;20548;-53
2022/12/30 08:33:52;;;;;;;4.28;3.28;;;6.20;99.90;;;;;;5010679;28;20748;-52
2022/12/30 08:36:21;;;;;;;8.25;3.03;;;6.40;99.90;;;;;;5012664;28;20061;-53
2022/12/30 08:38:53;;;;;;;4.20;2.53;;;6.60;99.90;;;;;;5021458;28;20111;-56
2022/12/30 08:41:27;;;;;;;4.60;2.95;;;6.90;99.90;;;;;;5008127;28;20072;-52
2022/12/30 08:43:58;;;;;;;4.90;2.72;;;7.10;99.90;;;;;;5010981;28;20049;-51
2022/12/30 08:46:28;;;;;;;3.55;2.45;;;7.30;99.90;;;;;;5007081;28;20543;-54
2022/12/30 08:48:55;;;;;;;3.50;2.30;;;7.50;99.90;;;;;;5010823;28;20037;-52
2022/12/30 08:51:22;;;;;;;2.97;2.58;;;7.60;99.90;;;;;;5009518;28;20080;-51
2022/12/30 08:53:49;;;;;;;3.25;2.38;;;7.70;99.90;;;;;;5013874;28;20140;-48
2022/12/30 08:56:22;;;;;;;4.20;2.65;;;7.90;99.90;;;;;;5029246;28;20134;-51
2022/12/30 08:58:50;;;;;;;2.75;2.10;;;8.10;99.90;;;;;;5012197;28;20091;-51
2022/12/30 09:01:24;;;;;;;3.85;2.88;;;8.30;99.90;;;;;;5013862;28;20218;-53
2022/12/30 09:03:52;;;;;;;4.10;2.67;;;8.50;99.90;;;;;;5013580;28;20065;-51
2022/12/30 09:06:24;;;;;;;4.78;2.15;;;8.70;99.90;;;;;;5010916;28;20136;-51
2022/12/30 09:08:52;;;;;;;3.92;2.10;;;8.90;99.90;;;;;;5011418;28;20049;-47
2022/12/30 09:11:22;;;;;;;4.05;2.35;;;9.10;99.90;;;;;;5009160;28;20049;-49
2022/12/30 09:13:50;;;;;;;3.80;2.83;;;9.30;99.90;;;;;;5012307;28;20048;-49
2022/12/30 09:16:21;;;;;;;4.10;2.35;;;9.50;99.90;;;;;;5011986;28;20123;-49
2022/12/30 09:18:50;;;;;;;7.13;2.47;;;9.80;99.90;;;;;;5012750;28;20306;-51
2022/12/30 09:21:17;;;;;;;4.05;2.60;;;10.00;99.90;;;;;;5011492;28;20120;-49
2022/12/30 09:23:44;;;;;;;2.90;2.40;;;10.30;99.90;;;;;;5010228;28;20345;-48
2022/12/30 09:26:17;;;;;;;3.22;2.63;;;10.40;99.90;;;;;;5022589;28;20281;-48
2022/12/30 09:28:44;;;;;;;3.92;2.60;;;10.70;99.90;;;;;;5010483;28;20601;-49
2022/12/30 09:31:11;;;;;;;2.50;2.20;;;11.00;99.90;;;;;;5009860;28;20087;-48
2022/12/30 09:33:38;;;;;;;;;;;11.20;99.90;;;;;;5012789;28;20411;-51
2022/12/30 09:36:06;;;;;;;2.78;2.40;;;11.50;99.90;;;;;;5009758;28;20070;-50
2022/12/30 09:38:33;;;;;;;2.13;1.83;;;11.70;99.90;;;;;;5024118;28;20567;-54
2022/12/30 09:43:15;;;;;;;2.90;2.20;;;11.90;99.90;;;;;;5009241;28;20619;-54
2022/12/30 09:44:49;;;;;;;3.28;2.58;;;12.10;99.90;;;;;;5011680;28;20455;-54
2022/12/30 09:47:31;;;;;;;2.45;2.22;;;12.20;99.90;;;;;;5008296;28;20041;-54
2022/12/30 09:50:13;;;;;;;3.20;2.20;;;12.40;99.90;;;;;;5009596;28;20052;-53
2022/12/30 09:52:51;;;;;;;3.05;2.08;;;12.50;99.90;;;;;;5011560;28;20462;-53
2022/12/30 09:55:23;;;;;;;2.83;2.40;;;12.70;99.90;;;;;;5012794;28;20060;-53
2022/12/30 09:57:56;;;;;;;2.60;2.35;;;12.90;99.90;;;;;;5005387;28;20056;-54
2022/12/30 10:00:28;;;;;;;3.28;2.25;;;13.00;99.90;;;;;;5009807;28;20052;-54
2022/12/30 10:03:15;;;;;;;4.53;2.00;;;13.00;99.90;;;;;;5007512;28;20049;-56
2022/12/30 10:06:23;;;;;;;6.38;2.10;;;13.10;99.90;;;;;;5008302;28;20581;-54
2022/12/30 10:09:04;;;;;;;2.20;1.85;;;13.30;99.90;;;;;;5009467;28;20080;-54
2022/12/30 10:11:37;;;;;;;2.20;1.95;;;13.50;99.90;;;;;;5005794;28;20111;-51
2022/12/30 10:14:33;;;;;;;3.20;2.10;;;13.70;99.90;;;;;;5011166;28;20053;-50
2022/12/30 10:17:18;;;;;;;2.85;2.10;;;13.80;99.90;;;;;;4976821;28;20107;-53
2022/12/30 10:20:13;;;;;;;3.00;2.60;;;13.70;99.90;;;;;;5008020;28;20416;-54
2022/12/30 10:23:02;;;;;;;5.72;2.50;;;13.70;99.90;;;;;;5010096;28;20045;-55
2022/12/30 10:25:44;;;;;;;3.25;2.58;;;13.80;99.90;;;;;;5008556;28;20054;-54
2022/12/30 10:28:14;;;;;;;5.95;2.28;;;13.90;99.90;;;;;;5012608;28;20307;-54
2022/12/30 10:30:48;;;;;;;4.13;1.95;;;14.00;99.90;;;;;;5010929;28;20124;-52
2022/12/30 10:33:21;;;;;;;5.80;3.03;;;14.10;99.90;;;;;;5001243;28;20829;-52
2022/12/30 10:36:22;;;;;;;3.38;2.17;;;14.20;99.90;;;;;;5009751;28;20060;-53
2022/12/30 10:38:58;;;;;;;3.42;2.35;;;14.40;99.90;;;;;;5009661;28;20132;-54
2022/12/30 10:41:32;;;;;;;3.05;2.75;;;14.50;99.90;;;;;;5009633;28;20353;-53
2022/12/30 10:44:21;;;;;;;2.22;2.00;;;14.60;99.90;;;;;;5012205;28;20049;-51
2022/12/30 10:47:07;;;;;;;3.10;2.40;;;14.60;99.90;;;;;;5008465;28;20123;-56
2022/12/30 10:49:50;;;;;;;6.47;2.40;;;14.50;99.90;;;;;;5007913;28;20049;-53
2022/12/30 10:52:16;;;;;;;3.17;2.70;;;14.50;99.90;;;;;;5010195;28;20045;-54
2022/12/30 10:54:43;;;;;;;;;;;14.30;99.90;;;;;;5011812;28;20188;-52
2022/12/30 10:57:35;;;;;;;2.70;2.40;;;14.20;99.90;;;;;;5024140;28;19951;-53
2022/12/30 11:00:03;;;;;;;3.58;2.90;;;14.20;99.90;;;;;;5008860;28;20212;-53
2022/12/30 11:02:37;;;;;;;3.10;2.20;;;14.10;99.90;;;;;;5006897;28;20048;-56
2022/12/30 11:05:34;;;;;;;3.05;2.20;;;14.10;99.90;;;;;;5006505;28;20227;-52
2022/12/30 11:08:05;;;;;;;3.53;2.65;;;13.90;99.90;;;;;;5006973;28;20077;-54
2022/12/30 11:10:32;;;;;;;4.53;2.70;;;13.70;99.90;;;;;;5011627;28;20712;-53
2022/12/30 11:16:01;;;;;;;4.28;2.33;;;13.30;99.90;;;;;;5007721;28;20048;-54
2022/12/30 11:18:29;;;;;;;2.30;1.70;;;13.10;99.90;;;;;;5007963;28;20193;-53
2022/12/30 11:21:00;;;;;;;5.13;1.85;;;13.00;99.90;;;;;;5010134;28;20365;-54
2022/12/30 11:23:29;;;;;;;2.60;1.73;;;12.70;99.90;;;;;;5007743;28;20980;-52
2022/12/30 11:25:57;;;;;;;3.42;1.85;;;12.60;99.90;;;;;;5007878;28;20053;-52
2022/12/30 11:28:38;;;;;;;5.38;2.53;;;12.40;99.90;;;;;;5008190;28;20099;-53
2022/12/30 11:31:13;;;;;;;3.47;2.10;;;12.30;99.90;;;;;;5013060;28;20554;-52
2022/12/30 11:33:51;;;;;;;2.58;2.15;;;12.20;99.90;;;;;;5007163;28;20507;-51
2022/12/30 11:36:26;;;;;;;;;;;12.00;99.90;;;;;;5012000;28;20181;-53
2022/12/30 11:39:18;;;;;;;4.35;1.92;;;11.90;99.90;;;;;;5006785;28;20028;-53
2022/12/30 11:41:47;;;;;;;2.60;2.10;;;11.80;99.90;;;;;;5001229;28;20127;-54
2022/12/30 11:44:19;;;;;;;4.72;2.08;;;11.70;99.90;;;;;;5009072;28;20073;-50
2022/12/30 11:46:52;;;;;;;3.70;2.40;;;11.50;99.90;;;;;;5008167;28;20128;-49
2022/12/30 11:49:30;;;;;;;2.17;1.80;;;11.30;99.90;;;;;;5009807;28;20487;-49
2022/12/30 11:52:03;;;;;;;2.60;1.80;;;11.20;99.90;;;;;;5006962;28;20099;-48
2022/12/30 11:54:50;;;;;;;4.63;2.22;;;11.10;99.90;;;;;;5009783;28;20558;-49
2022/12/30 11:57:31;;;;;;;2.38;1.88;;;11.00;99.90;;;;;;5008168;28;20260;-50
2022/12/30 12:00:16;;;;;;;3.42;1.70;;;10.90;99.90;;;;;;5025949;28;20205;-51
2022/12/30 12:03:01;;;;;;;3.65;2.08;;;10.70;99.90;;;;;;5010742;28;20045;-51
2022/12/30 12:05:41;;;;;;;2.33;1.73;;;10.60;99.90;;;;;;5018742;28;20511;-49
2022/12/30 12:08:23;;;;;;;2.08;1.58;;;10.40;99.90;;;;;;5010919;28;20040;-49
2022/12/30 12:11:02;;;;;;;3.47;2.17;;;10.30;99.90;;;;;;5008826;28;20041;-49
2022/12/30 12:13:39;;;;;;;4.15;2.10;;;10.20;99.90;;;;;;5005978;28;20116;-54
2022/12/30 12:16:10;;;;;;;2.47;1.83;;;10.10;99.90;;;;;;5007797;28;20136;-55
2022/12/30 12:18:43;;;;;;;6.93;2.45;;;10.10;99.90;;;;;;5008043;28;20046;-54
2022/12/30 12:21:18;;;;;;;2.88;2.33;;;9.90;99.90;;;;;;5010186;28;20513;-52
2022/12/30 12:23:51;;;;;;;3.15;2.05;;;9.70;99.90;;;;;;5005815;28;20502;-53
2022/12/30 12:26:39;;;;;;;5.00;2.28;;;9.50;99.90;;;;;;5002735;28;20414;-54
2022/12/30 12:29:11;;;;;;;3.45;1.60;;;9.40;99.90;;;;;;5010930;28;20111;-53
2022/12/30 12:31:56;;;;;;;2.35;1.80;;;9.20;99.90;;;;;;5027095;28;20428;-53
2022/12/30 12:35:00;;;;;;;1.33;1.23;;;9.10;99.90;;;;;;5011982;28;20201;-50
2022/12/30 12:37:52;;;;;;;2.67;2.45;;;9.00;99.90;;;;;;5011149;28;20045;-54
2022/12/30 12:40:35;;;;;;;1.65;1.52;;;8.90;99.90;;;;;;5013060;28;20045;-54
2022/12/30 12:43:20;;;;;;;2.85;2.42;;;8.80;99.90;;;;;;5010881;28;20511;-52
2022/12/30 12:46:03;;;;;;;3.00;2.10;;;8.70;99.90;;;;;;5010865;28;20145;-52
2022/12/30 12:48:40;;;;;;;2.15;1.38;;;8.70;99.90;;;;;;5021772;28;20049;-52
2022/12/30 12:51:13;;;;;;;2.85;1.90;;;8.60;99.90;;;;;;5015306;28;20037;-53
2022/12/30 12:53:48;;;;;;;3.65;2.00;;;8.70;99.90;;;;;;5010611;28;20120;-54
2022/12/30 12:56:42;;;;;;;2.08;1.60;;;8.60;99.90;;;;;;5009827;28;20064;-58
2022/12/30 12:59:32;;;;;;;4.60;2.53;;;8.70;99.90;;;;;;5014093;28;20970;-54
2022/12/30 13:02:13;;;;;;;5.10;2.33;;;8.80;99.90;;;;;;5014993;28;20049;-53
2022/12/30 13:05:10;;;;;;;2.13;1.92;;;8.80;99.90;;;;;;5010836;28;20044;-53
2022/12/30 13:08:00;;;;;;;3.53;2.85;;;8.80;99.90;;;;;;5013264;28;20139;-53
2022/12/30 13:11:17;;;;;;;3.13;2.67;;;8.80;99.90;;;;;;5016696;28;20038;-53
2022/12/30 13:14:34;;;;;;;3.50;2.92;;;8.80;99.90;;;;;;5013839;28;20049;-53
2022/12/30 13:17:09;;;;;;;3.70;2.72;;;8.80;99.90;;;;;;5011167;28;20069;-53
2022/12/30 13:19:37;;;;;;;3.92;2.90;;;8.60;99.90;;;;;;5010885;28;20056;-52
2022/12/30 13:22:10;;;;;;;3.42;2.60;;;8.50;99.90;;;;;;5009195;28;20085;-53
2022/12/30 13:24:49;;;;;;;2.92;2.58;;;8.40;99.90;;;;;;5010313;28;20048;-51
2022/12/30 13:27:27;;;;;;;4.88;3.20;;;8.40;99.90;;;;;;5022437;28;20448;-52
2022/12/30 13:29:56;;;;;;;3.33;2.72;;;8.40;99.90;;;;;;5009586;28;20049;-51
2022/12/30 13:32:45;;;;;;;3.85;2.60;;;8.30;99.90;;;;;;5011568;28;20584;-51
2022/12/30 13:35:14;;;;;;;5.45;4.32;;;8.30;99.90;;;;;;5012015;28;20567;-50
2022/12/30 13:37:53;;;;;;;4.15;3.42;;;8.20;99.90;;;;;;5010584;28;20044;-55
2022/12/30 13:40:23;;;;;;;9.05;3.58;;;8.20;99.90;;;;;;5008954;28;20132;-55
2022/12/30 13:43:06;;;;;;;6.05;3.88;;;8.20;99.90;;;;;;5023631;28;20114;-53
2022/12/30 13:45:41;;;;;;;4.30;3.25;;;8.10;99.90;;;;;;5013436;28;20262;-53
2022/12/30 13:48:22;;;;;;;6.15;3.88;;;8.00;99.90;;;;;;5012074;28;20047;-54
2022/12/30 13:51:02;;;;;;;7.18;3.75;;;8.00;99.90;;;;;;5012775;28;20048;-52
2022/12/30 13:53:44;;;;;;;5.15;3.38;;;7.90;99.90;;;;;;5010943;28;20041;-55
2022/12/30 13:56:20;;;;;;;6.18;4.25;;;7.90;99.90;;;;;;5008724;28;20050;-55
2022/12/30 13:58:50;;;;;;;5.20;3.95;;;7.90;99.90;;;;;;5011316;28;20049;-55
2022/12/30 14:01:20;;;;;;;7.50;4.70;;;7.80;99.90;;;;;;5010172;28;20040;-55
2022/12/30 14:04:10;;;;;;;5.53;3.53;;;7.80;99.90;;;;;;5011675;28;20137;-54
2022/12/30 14:06:45;;;;;;;4.10;3.00;;;7.80;99.90;;;;;;5009105;28;20048;-52
2022/12/30 14:09:24;;;;;;;4.43;3.40;;;7.70;99.90;;;;;;5007141;28;20045;-53
2022/12/30 14:12:06;;;;;;;8.63;4.13;;;7.70;99.90;;;;;;5009788;28;20131;-55
2022/12/30 14:14:38;;;;;;;8.32;4.35;;;7.70;99.90;;;;;;5009297;28;20046;-54
2022/12/30 14:17:10;;;;;;;8.75;4.00;;;7.60;99.90;;;;;;5007266;28;20049;-54
2022/12/30 14:20:14;;;;;;;6.82;3.78;;;7.60;99.90;;;;;;5007080;28;20046;-53
2022/12/30 14:22:41;;;;;;;4.57;3.47;;;7.60;99.90;;;;;;5003509;28;20127;-54
2022/12/30 14:25:14;;;;;;;6.22;4.13;;;7.50;99.90;;;;;;5009580;28;20142;-55
2022/12/30 14:27:45;;;;;;;6.35;3.85;;;7.50;99.90;;;;;;5009379;28;20067;-53